San Pedro, Argentina
Current Conditions -  °F | °C
As of 9:30 AM on Wednesday 26 Nov 2014 (Local Time) from SASJ Reporting Station
Drizzle Drizzle  
Wind Chill: 64°   Ceiling: 3000
Heat Index: 64°   Visibility: 3mi
Dew Point: 63°   Wind: 8mph
Humidity: 94%   Direction: 160°SSE
Pressure: 30"   Gusts: NA
Location:  24.22°S, 64.87°W
Report Text: SASJ 261230Z 16007KT 5000 -DZ BR SCT007 BKN030 OVC050 18/17 Q1016
Loading
Personal Weather Stations






























Interactive Weather Map New forecast layout! Learn more

10-Day Weather Forecast

Advertisements
Track Severe Weather on mobile